sensor_id;sensor_type;location;lat;lon;timestamp;P1;durP1;ratioP1;P2;durP2;ratioP2
53652;SDS011;39553;52.954;5.932;2022-10-10T00:00:43;13.35;;;5.97;;
53652;SDS011;39553;52.954;5.932;2022-10-10T00:03:09;10.43;;;5.55;;
53652;SDS011;39553;52.954;5.932;2022-10-10T00:05:36;11.30;;;5.22;;
53652;SDS011;39553;52.954;5.932;2022-10-10T00:08:03;11.57;;;6.03;;
53652;SDS011;39553;52.954;5.932;2022-10-10T00:10:30;7.97;;;5.50;;
53652;SDS011;39553;52.954;5.932;2022-10-10T00:12:56;10.40;;;5.80;;
53652;SDS011;39553;52.954;5.932;2022-10-10T00:15:22;8.73;;;5.40;;
53652;SDS011;39553;52.954;5.932;2022-10-10T00:17:48;13.10;;;5.63;;
53652;SDS011;39553;52.954;5.932;2022-10-10T00:20:14;8.60;;;6.30;;
53652;SDS011;39553;52.954;5.932;2022-10-10T00:22:42;10.02;;;5.18;;
53652;SDS011;39553;52.954;5.932;2022-10-10T00:25:08;9.25;;;5.93;;
53652;SDS011;39553;52.954;5.932;2022-10-10T00:27:34;9.35;;;5.82;;
53652;SDS011;39553;52.954;5.932;2022-10-10T00:30:05;13.32;;;5.03;;
53652;SDS011;39553;52.954;5.932;2022-10-10T00:32:32;6.32;;;5.20;;
53652;SDS011;39553;52.954;5.932;2022-10-10T00:34:59;7.72;;;4.90;;
53652;SDS011;39553;52.954;5.932;2022-10-10T00:37:25;9.35;;;5.63;;
53652;SDS011;39553;52.954;5.932;2022-10-10T00:39:51;20.58;;;6.18;;
53652;SDS011;39553;52.954;5.932;2022-10-10T00:42:17;8.40;;;5.40;;
53652;SDS011;39553;52.954;5.932;2022-10-10T00:44:44;9.93;;;5.68;;
53652;SDS011;39553;52.954;5.932;2022-10-10T00:47:12;10.20;;;6.20;;
53652;SDS011;39553;52.954;5.932;2022-10-10T00:49:38;10.45;;;5.88;;
53652;SDS011;39553;52.954;5.932;2022-10-10T00:52:07;8.02;;;5.63;;
53652;SDS011;39553;52.954;5.932;2022-10-10T00:54:35;11.68;;;6.13;;
53652;SDS011;39553;52.954;5.932;2022-10-10T00:57:03;9.38;;;5.53;;
53652;SDS011;39553;52.954;5.932;2022-10-10T00:59:33;12.98;;;5.63;;
53652;SDS011;39553;52.954;5.932;2022-10-10T01:02:02;8.82;;;5.35;;
53652;SDS011;39553;52.954;5.932;2022-10-10T01:04:29;8.43;;;6.32;;
53652;SDS011;39553;52.954;5.932;2022-10-10T01:06:55;8.98;;;5.88;;
53652;SDS011;39553;52.954;5.932;2022-10-10T01:09:22;7.53;;;5.03;;
53652;SDS011;39553;52.954;5.932;2022-10-10T01:11:52;10.75;;;5.68;;
53652;SDS011;39553;52.954;5.932;2022-10-10T01:27:52;8.88;;;5.85;;
53652;SDS011;39553;52.954;5.932;2022-10-10T01:30:35;10.65;;;5.65;;
53652;SDS011;39553;52.954;5.932;2022-10-10T01:33:36;13.05;;;5.93;;
53652;SDS011;39553;52.954;5.932;2022-10-10T01:36:15;9.82;;;5.72;;
53652;SDS011;39553;52.954;5.932;2022-10-10T01:38:55;9.43;;;7.13;;
53652;SDS011;39553;52.954;5.932;2022-10-10T01:41:29;12.57;;;5.97;;
53652;SDS011;39553;52.954;5.932;2022-10-10T01:44:02;10.00;;;5.65;;
53652;SDS011;39553;52.954;5.932;2022-10-10T01:46:30;21.70;;;6.90;;
53652;SDS011;39553;52.954;5.932;2022-10-10T01:48:56;11.77;;;6.63;;
53652;SDS011;39553;52.954;5.932;2022-10-10T01:57:15;10.20;;;6.88;;
53652;SDS011;39553;52.954;5.932;2022-10-10T02:08:09;9.25;;;6.18;;
53652;SDS011;39553;52.954;5.932;2022-10-10T02:10:45;7.93;;;6.10;;
53652;SDS011;39553;52.954;5.932;2022-10-10T02:13:18;10.48;;;6.55;;
53652;SDS011;39553;52.954;5.932;2022-10-10T02:15:47;11.40;;;6.15;;
53652;SDS011;39553;52.954;5.932;2022-10-10T02:18:19;15.48;;;6.85;;
53652;SDS011;39553;52.954;5.932;2022-10-10T02:20:46;9.25;;;6.43;;
53652;SDS011;39553;52.954;5.932;2022-10-10T02:23:15;9.85;;;6.30;;
53652;SDS011;39553;52.954;5.932;2022-10-10T02:25:45;7.22;;;5.85;;
53652;SDS011;39553;52.954;5.932;2022-10-10T02:28:16;12.60;;;6.57;;
53652;SDS011;39553;52.954;5.932;2022-10-10T02:31:00;8.40;;;5.65;;
53652;SDS011;39553;52.954;5.932;2022-10-10T02:33:41;11.98;;;6.57;;
53652;SDS011;39553;52.954;5.932;2022-10-10T02:36:25;12.68;;;6.22;;
53652;SDS011;39553;52.954;5.932;2022-10-10T02:38:52;14.07;;;7.03;;
53652;SDS011;39553;52.954;5.932;2022-10-10T02:41:19;11.73;;;6.35;;
53652;SDS011;39553;52.954;5.932;2022-10-10T02:43:46;13.73;;;6.93;;
53652;SDS011;39553;52.954;5.932;2022-10-10T02:46:14;15.27;;;6.95;;
53652;SDS011;39553;52.954;5.932;2022-10-10T02:48:41;11.25;;;7.18;;
53652;SDS011;39553;52.954;5.932;2022-10-10T02:51:07;11.75;;;6.95;;
53652;SDS011;39553;52.954;5.932;2022-10-10T02:53:34;10.05;;;6.75;;
53652;SDS011;39553;52.954;5.932;2022-10-10T02:56:02;11.85;;;6.80;;
53652;SDS011;39553;52.954;5.932;2022-10-10T02:58:27;13.73;;;7.15;;
53652;SDS011;39553;52.954;5.932;2022-10-10T03:00:53;9.07;;;6.32;;
53652;SDS011;39553;52.954;5.932;2022-10-10T03:03:19;11.18;;;6.65;;
53652;SDS011;39553;52.954;5.932;2022-10-10T03:05:45;9.23;;;6.90;;
53652;SDS011;39553;52.954;5.932;2022-10-10T03:08:11;10.95;;;6.82;;
53652;SDS011;39553;52.954;5.932;2022-10-10T03:10:36;13.88;;;7.45;;
53652;SDS011;39553;52.954;5.932;2022-10-10T03:13:02;12.23;;;7.40;;
53652;SDS011;39553;52.954;5.932;2022-10-10T03:15:28;15.98;;;6.70;;
53652;SDS011;39553;52.954;5.932;2022-10-10T03:17:54;9.43;;;6.25;;
53652;SDS011;39553;52.954;5.932;2022-10-10T03:20:19;15.48;;;7.72;;
53652;SDS011;39553;52.954;5.932;2022-10-10T03:22:45;10.13;;;6.78;;
53652;SDS011;39553;52.954;5.932;2022-10-10T03:25:11;14.55;;;7.20;;
53652;SDS011;39553;52.954;5.932;2022-10-10T03:27:38;11.30;;;7.10;;
53652;SDS011;39553;52.954;5.932;2022-10-10T03:30:04;10.93;;;7.40;;
53652;SDS011;39553;52.954;5.932;2022-10-10T03:32:30;10.60;;;7.10;;
53652;SDS011;39553;52.954;5.932;2022-10-10T03:34:56;9.45;;;6.85;;
53652;SDS011;39553;52.954;5.932;2022-10-10T03:37:21;12.13;;;7.20;;
53652;SDS011;39553;52.954;5.932;2022-10-10T03:39:47;14.30;;;7.07;;
53652;SDS011;39553;52.954;5.932;2022-10-10T03:42:13;11.68;;;6.32;;
53652;SDS011;39553;52.954;5.932;2022-10-10T03:44:38;10.63;;;6.85;;
53652;SDS011;39553;52.954;5.932;2022-10-10T03:47:04;12.48;;;7.82;;
53652;SDS011;39553;52.954;5.932;2022-10-10T03:49:30;14.05;;;7.07;;
53652;SDS011;39553;52.954;5.932;2022-10-10T03:51:56;9.25;;;6.70;;
53652;SDS011;39553;52.954;5.932;2022-10-10T03:54:21;12.43;;;7.45;;
53652;SDS011;39553;52.954;5.932;2022-10-10T03:56:47;18.60;;;7.85;;
53652;SDS011;39553;52.954;5.932;2022-10-10T03:59:13;12.38;;;7.60;;
53652;SDS011;39553;52.954;5.932;2022-10-10T04:01:39;11.90;;;7.25;;
53652;SDS011;39553;52.954;5.932;2022-10-10T04:04:04;13.85;;;7.93;;
53652;SDS011;39553;52.954;5.932;2022-10-10T04:06:30;12.48;;;7.43;;
53652;SDS011;39553;52.954;5.932;2022-10-10T04:08:56;12.52;;;7.80;;
53652;SDS011;39553;52.954;5.932;2022-10-10T04:11:21;11.15;;;7.50;;
53652;SDS011;39553;52.954;5.932;2022-10-10T04:13:47;10.63;;;7.38;;
53652;SDS011;39553;52.954;5.932;2022-10-10T04:16:13;12.13;;;6.50;;
53652;SDS011;39553;52.954;5.932;2022-10-10T04:18:39;15.18;;;8.02;;
53652;SDS011;39553;52.954;5.932;2022-10-10T04:21:05;12.32;;;7.70;;
53652;SDS011;39553;52.954;5.932;2022-10-10T04:23:31;14.63;;;7.70;;
53652;SDS011;39553;52.954;5.932;2022-10-10T04:25:57;10.82;;;7.28;;
53652;SDS011;39553;52.954;5.932;2022-10-10T04:28:22;9.77;;;6.88;;
53652;SDS011;39553;52.954;5.932;2022-10-10T04:30:48;12.57;;;7.50;;
53652;SDS011;39553;52.954;5.932;2022-10-10T04:33:14;12.70;;;7.93;;
53652;SDS011;39553;52.954;5.932;2022-10-10T04:35:40;12.15;;;8.35;;
53652;SDS011;39553;52.954;5.932;2022-10-10T04:38:06;11.48;;;7.80;;
53652;SDS011;39553;52.954;5.932;2022-10-10T04:40:31;13.23;;;7.38;;
53652;SDS011;39553;52.954;5.932;2022-10-10T04:42:57;12.68;;;7.47;;
53652;SDS011;39553;52.954;5.932;2022-10-10T04:45:23;12.88;;;7.97;;
53652;SDS011;39553;52.954;5.932;2022-10-10T04:47:51;14.35;;;7.68;;
53652;SDS011;39553;52.954;5.932;2022-10-10T04:50:17;17.50;;;7.70;;
53652;SDS011;39553;52.954;5.932;2022-10-10T04:52:43;16.75;;;8.35;;
53652;SDS011;39553;52.954;5.932;2022-10-10T04:55:09;16.05;;;9.30;;
53652;SDS011;39553;52.954;5.932;2022-10-10T04:57:36;11.50;;;7.72;;
53652;SDS011;39553;52.954;5.932;2022-10-10T05:00:03;11.18;;;7.20;;
53652;SDS011;39553;52.954;5.932;2022-10-10T05:02:29;11.55;;;7.35;;
53652;SDS011;39553;52.954;5.932;2022-10-10T05:04:55;12.35;;;7.53;;
53652;SDS011;39553;52.954;5.932;2022-10-10T05:07:21;15.13;;;7.85;;
53652;SDS011;39553;52.954;5.932;2022-10-10T05:09:48;14.25;;;8.57;;
53652;SDS011;39553;52.954;5.932;2022-10-10T05:12:22;9.57;;;6.85;;
53652;SDS011;39553;52.954;5.932;2022-10-10T05:14:51;14.35;;;7.70;;
53652;SDS011;39553;52.954;5.932;2022-10-10T05:17:17;16.30;;;8.23;;
53652;SDS011;39553;52.954;5.932;2022-10-10T05:19:43;13.25;;;7.47;;
53652;SDS011;39553;52.954;5.932;2022-10-10T05:22:09;12.15;;;8.07;;
53652;SDS011;39553;52.954;5.932;2022-10-10T05:24:34;12.57;;;8.20;;
53652;SDS011;39553;52.954;5.932;2022-10-10T05:27:00;22.40;;;8.45;;
53652;SDS011;39553;52.954;5.932;2022-10-10T05:29:26;14.20;;;8.02;;
53652;SDS011;39553;52.954;5.932;2022-10-10T05:31:51;12.18;;;7.40;;
53652;SDS011;39553;52.954;5.932;2022-10-10T05:34:17;12.55;;;7.50;;
53652;SDS011;39553;52.954;5.932;2022-10-10T05:36:43;15.65;;;7.97;;
53652;SDS011;39553;52.954;5.932;2022-10-10T05:39:09;12.63;;;7.68;;
53652;SDS011;39553;52.954;5.932;2022-10-10T05:41:34;14.80;;;7.43;;
53652;SDS011;39553;52.954;5.932;2022-10-10T05:44:03;11.65;;;7.10;;
53652;SDS011;39553;52.954;5.932;2022-10-10T05:46:29;12.85;;;8.18;;
53652;SDS011;39553;52.954;5.932;2022-10-10T05:48:55;11.60;;;7.57;;
53652;SDS011;39553;52.954;5.932;2022-10-10T05:51:21;16.55;;;7.45;;
53652;SDS011;39553;52.954;5.932;2022-10-10T05:53:47;20.38;;;7.70;;
53652;SDS011;39553;52.954;5.932;2022-10-10T05:56:13;13.25;;;7.95;;
53652;SDS011;39553;52.954;5.932;2022-10-10T05:58:41;16.85;;;8.27;;
53652;SDS011;39553;52.954;5.932;2022-10-10T06:01:10;16.88;;;8.52;;
53652;SDS011;39553;52.954;5.932;2022-10-10T06:03:36;13.77;;;8.02;;
53652;SDS011;39553;52.954;5.932;2022-10-10T06:06:01;14.73;;;7.43;;
53652;SDS011;39553;52.954;5.932;2022-10-10T06:08:27;14.98;;;7.70;;
53652;SDS011;39553;52.954;5.932;2022-10-10T06:10:59;15.20;;;7.63;;
53652;SDS011;39553;52.954;5.932;2022-10-10T06:13:35;14.30;;;7.70;;
53652;SDS011;39553;52.954;5.932;2022-10-10T06:16:02;11.90;;;7.43;;
53652;SDS011;39553;52.954;5.932;2022-10-10T06:18:28;12.40;;;7.57;;
53652;SDS011;39553;52.954;5.932;2022-10-10T06:20:54;13.90;;;7.95;;
53652;SDS011;39553;52.954;5.932;2022-10-10T06:23:24;15.15;;;8.63;;
53652;SDS011;39553;52.954;5.932;2022-10-10T06:25:53;11.65;;;7.50;;
53652;SDS011;39553;52.954;5.932;2022-10-10T06:28:18;13.80;;;7.90;;
53652;SDS011;39553;52.954;5.932;2022-10-10T06:30:44;13.65;;;7.85;;
53652;SDS011;39553;52.954;5.932;2022-10-10T06:33:12;13.13;;;6.70;;
53652;SDS011;39553;52.954;5.932;2022-10-10T06:35:40;15.75;;;7.95;;
53652;SDS011;39553;52.954;5.932;2022-10-10T06:38:06;12.27;;;6.60;;
53652;SDS011;39553;52.954;5.932;2022-10-10T06:40:33;11.52;;;7.35;;
53652;SDS011;39553;52.954;5.932;2022-10-10T06:42:59;15.57;;;7.78;;
53652;SDS011;39553;52.954;5.932;2022-10-10T06:45:25;10.75;;;7.85;;
53652;SDS011;39553;52.954;5.932;2022-10-10T06:47:51;14.80;;;7.35;;
53652;SDS011;39553;52.954;5.932;2022-10-10T06:50:17;11.13;;;6.53;;
53652;SDS011;39553;52.954;5.932;2022-10-10T06:52:43;8.60;;;6.13;;
53652;SDS011;39553;52.954;5.932;2022-10-10T06:55:09;15.18;;;6.38;;
53652;SDS011;39553;52.954;5.932;2022-10-10T06:57:34;11.10;;;6.53;;
53652;SDS011;39553;52.954;5.932;2022-10-10T07:00:04;9.77;;;6.28;;
53652;SDS011;39553;52.954;5.932;2022-10-10T07:02:30;9.02;;;6.25;;
53652;SDS011;39553;52.954;5.932;2022-10-10T07:04:56;11.60;;;6.00;;
53652;SDS011;39553;52.954;5.932;2022-10-10T07:07:22;11.60;;;6.88;;
53652;SDS011;39553;52.954;5.932;2022-10-10T07:09:48;11.13;;;6.43;;
53652;SDS011;39553;52.954;5.932;2022-10-10T07:12:13;12.23;;;6.93;;
53652;SDS011;39553;52.954;5.932;2022-10-10T07:14:39;11.40;;;5.82;;
53652;SDS011;39553;52.954;5.932;2022-10-10T07:17:05;9.43;;;5.38;;
53652;SDS011;39553;52.954;5.932;2022-10-10T07:19:31;16.58;;;7.05;;
53652;SDS011;39553;52.954;5.932;2022-10-10T07:21:56;9.77;;;6.20;;
53652;SDS011;39553;52.954;5.932;2022-10-10T07:24:22;10.30;;;5.63;;
53652;SDS011;39553;52.954;5.932;2022-10-10T07:26:48;14.05;;;6.93;;
53652;SDS011;39553;52.954;5.932;2022-10-10T07:29:16;8.88;;;6.95;;
53652;SDS011;39553;52.954;5.932;2022-10-10T07:31:42;10.30;;;5.97;;
53652;SDS011;39553;52.954;5.932;2022-10-10T07:34:08;10.75;;;7.22;;
53652;SDS011;39553;52.954;5.932;2022-10-10T07:36:33;9.40;;;6.43;;
53652;SDS011;39553;52.954;5.932;2022-10-10T07:38:59;12.50;;;6.40;;
53652;SDS011;39553;52.954;5.932;2022-10-10T07:41:25;11.20;;;6.38;;
53652;SDS011;39553;52.954;5.932;2022-10-10T07:43:54;10.80;;;6.20;;
53652;SDS011;39553;52.954;5.932;2022-10-10T07:46:20;10.70;;;6.43;;
53652;SDS011;39553;52.954;5.932;2022-10-10T07:48:46;10.45;;;6.93;;
53652;SDS011;39553;52.954;5.932;2022-10-10T07:51:13;8.93;;;6.13;;
53652;SDS011;39553;52.954;5.932;2022-10-10T07:53:40;10.07;;;6.22;;
53652;SDS011;39553;52.954;5.932;2022-10-10T07:56:06;8.15;;;5.82;;
53652;SDS011;39553;52.954;5.932;2022-10-10T07:58:33;9.55;;;6.07;;
53652;SDS011;39553;52.954;5.932;2022-10-10T08:01:00;13.80;;;6.45;;
53652;SDS011;39553;52.954;5.932;2022-10-10T08:03:27;12.32;;;6.80;;
53652;SDS011;39553;52.954;5.932;2022-10-10T08:05:53;9.65;;;5.85;;
53652;SDS011;39553;52.954;5.932;2022-10-10T08:08:19;11.93;;;6.22;;
53652;SDS011;39553;52.954;5.932;2022-10-10T08:10:44;10.93;;;6.32;;
53652;SDS011;39553;52.954;5.932;2022-10-10T08:13:11;8.73;;;6.22;;
53652;SDS011;39553;52.954;5.932;2022-10-10T08:15:40;8.35;;;6.32;;
53652;SDS011;39553;52.954;5.932;2022-10-10T08:18:06;13.68;;;6.50;;
53652;SDS011;39553;52.954;5.932;2022-10-10T08:20:32;10.20;;;6.50;;
53652;SDS011;39553;52.954;5.932;2022-10-10T08:22:58;12.43;;;6.90;;
53652;SDS011;39553;52.954;5.932;2022-10-10T08:25:24;13.27;;;7.03;;
53652;SDS011;39553;52.954;5.932;2022-10-10T08:27:50;14.02;;;6.40;;
53652;SDS011;39553;52.954;5.932;2022-10-10T08:30:16;14.07;;;6.43;;
53652;SDS011;39553;52.954;5.932;2022-10-10T08:32:42;11.52;;;6.55;;
53652;SDS011;39553;52.954;5.932;2022-10-10T08:35:07;10.38;;;6.78;;
53652;SDS011;39553;52.954;5.932;2022-10-10T08:37:33;11.85;;;6.68;;
53652;SDS011;39553;52.954;5.932;2022-10-10T08:39:59;9.15;;;6.82;;
53652;SDS011;39553;52.954;5.932;2022-10-10T08:42:37;10.52;;;5.88;;
53652;SDS011;39553;52.954;5.932;2022-10-10T08:45:10;15.43;;;6.70;;
53652;SDS011;39553;52.954;5.932;2022-10-10T08:52:59;15.20;;;6.97;;
53652;SDS011;39553;52.954;5.932;2022-10-10T08:55:33;9.97;;;6.00;;
53652;SDS011;39553;52.954;5.932;2022-10-10T09:01:08;11.15;;;7.07;;
53652;SDS011;39553;52.954;5.932;2022-10-10T09:03:48;9.88;;;6.80;;
53652;SDS011;39553;52.954;5.932;2022-10-10T09:06:27;13.82;;;6.57;;
53652;SDS011;39553;52.954;5.932;2022-10-10T09:09:12;12.43;;;6.25;;
53652;SDS011;39553;52.954;5.932;2022-10-10T09:17:41;12.93;;;6.40;;
53652;SDS011;39553;52.954;5.932;2022-10-10T09:20:33;9.02;;;6.55;;
53652;SDS011;39553;52.954;5.932;2022-10-10T09:23:24;15.63;;;6.75;;
53652;SDS011;39553;52.954;5.932;2022-10-10T09:25:56;12.30;;;7.10;;
53652;SDS011;39553;52.954;5.932;2022-10-10T09:30:59;11.27;;;6.40;;
53652;SDS011;39553;52.954;5.932;2022-10-10T09:33:40;12.73;;;7.18;;
53652;SDS011;39553;52.954;5.932;2022-10-10T09:36:14;17.55;;;6.85;;
53652;SDS011;39553;52.954;5.932;2022-10-10T09:38:47;13.90;;;7.22;;
53652;SDS011;39553;52.954;5.932;2022-10-10T09:43:45;8.60;;;6.10;;
53652;SDS011;39553;52.954;5.932;2022-10-10T09:46:12;13.40;;;6.35;;
53652;SDS011;39553;52.954;5.932;2022-10-10T09:48:41;17.38;;;6.00;;
53652;SDS011;39553;52.954;5.932;2022-10-10T09:51:12;10.57;;;6.72;;
53652;SDS011;39553;52.954;5.932;2022-10-10T09:53:40;10.00;;;6.50;;
53652;SDS011;39553;52.954;5.932;2022-10-10T09:56:25;11.02;;;5.93;;
53652;SDS011;39553;52.954;5.932;2022-10-10T09:58:55;8.20;;;6.45;;
53652;SDS011;39553;52.954;5.932;2022-10-10T10:01:22;9.90;;;6.07;;
53652;SDS011;39553;52.954;5.932;2022-10-10T10:04:05;10.82;;;5.72;;
53652;SDS011;39553;52.954;5.932;2022-10-10T10:06:33;12.50;;;7.30;;
53652;SDS011;39553;52.954;5.932;2022-10-10T10:09:04;10.32;;;5.75;;
53652;SDS011;39553;52.954;5.932;2022-10-10T10:11:31;10.82;;;6.03;;
53652;SDS011;39553;52.954;5.932;2022-10-10T10:14:03;10.32;;;6.53;;
53652;SDS011;39553;52.954;5.932;2022-10-10T10:16:38;12.13;;;6.70;;
53652;SDS011;39553;52.954;5.932;2022-10-10T10:19:04;9.50;;;6.18;;
53652;SDS011;39553;52.954;5.932;2022-10-10T10:21:50;9.40;;;6.05;;
53652;SDS011;39553;52.954;5.932;2022-10-10T10:24:21;12.05;;;6.45;;
53652;SDS011;39553;52.954;5.932;2022-10-10T10:26:52;14.57;;;5.95;;
53652;SDS011;39553;52.954;5.932;2022-10-10T10:40:44;10.27;;;6.18;;
53652;SDS011;39553;52.954;5.932;2022-10-10T10:46:24;9.25;;;6.25;;
53652;SDS011;39553;52.954;5.932;2022-10-10T11:00:11;12.73;;;7.07;;
53652;SDS011;39553;52.954;5.932;2022-10-10T11:15:58;14.23;;;6.25;;
53652;SDS011;39553;52.954;5.932;2022-10-10T11:19:28;14.60;;;7.50;;
53652;SDS011;39553;52.954;5.932;2022-10-10T11:21:37;17.55;;;8.48;;
53652;SDS011;39553;52.954;5.932;2022-10-10T11:24:09;16.77;;;8.10;;
53652;SDS011;39553;52.954;5.932;2022-10-10T11:26:44;16.92;;;8.77;;
53652;SDS011;39553;52.954;5.932;2022-10-10T11:29:15;10.85;;;8.25;;
53652;SDS011;39553;52.954;5.932;2022-10-10T11:34:44;14.50;;;8.65;;
53652;SDS011;39553;52.954;5.932;2022-10-10T11:37:21;17.23;;;8.90;;
53652;SDS011;39553;52.954;5.932;2022-10-10T11:39:53;20.48;;;9.10;;
53652;SDS011;39553;52.954;5.932;2022-10-10T11:42:41;17.58;;;9.32;;
53652;SDS011;39553;52.954;5.932;2022-10-10T11:45:13;15.75;;;9.32;;
53652;SDS011;39553;52.954;5.932;2022-10-10T11:47:46;17.80;;;9.40;;
53652;SDS011;39553;52.954;5.932;2022-10-10T11:50:33;19.02;;;9.65;;
53652;SDS011;39553;52.954;5.932;2022-10-10T11:53:11;19.00;;;11.02;;
53652;SDS011;39553;52.954;5.932;2022-10-10T12:00:52;18.55;;;10.70;;
53652;SDS011;39553;52.954;5.932;2022-10-10T12:03:23;18.42;;;9.82;;
53652;SDS011;39553;52.954;5.932;2022-10-10T12:05:52;15.88;;;9.82;;
53652;SDS011;39553;52.954;5.932;2022-10-10T12:08:25;17.80;;;10.70;;
53652;SDS011;39553;52.954;5.932;2022-10-10T12:11:13;19.52;;;10.75;;
53652;SDS011;39553;52.954;5.932;2022-10-10T12:13:56;20.80;;;10.80;;
53652;SDS011;39553;52.954;5.932;2022-10-10T12:16:25;19.33;;;10.85;;
53652;SDS011;39553;52.954;5.932;2022-10-10T12:19:02;18.15;;;9.48;;
53652;SDS011;39553;52.954;5.932;2022-10-10T12:21:29;21.10;;;10.60;;
53652;SDS011;39553;52.954;5.932;2022-10-10T12:24:10;16.98;;;10.50;;
53652;SDS011;39553;52.954;5.932;2022-10-10T12:37:21;16.70;;;10.52;;
53652;SDS011;39553;52.954;5.932;2022-10-10T12:45:07;18.35;;;11.02;;
53652;SDS011;39553;52.954;5.932;2022-10-10T12:48:05;21.25;;;11.57;;
53652;SDS011;39553;52.954;5.932;2022-10-10T12:50:42;22.17;;;11.50;;
53652;SDS011;39553;52.954;5.932;2022-10-10T12:53:27;22.10;;;11.55;;
53652;SDS011;39553;52.954;5.932;2022-10-10T12:55:57;23.10;;;11.95;;
53652;SDS011;39553;52.954;5.932;2022-10-10T12:58:29;19.45;;;11.38;;
53652;SDS011;39553;52.954;5.932;2022-10-10T13:00:58;21.80;;;11.32;;
53652;SDS011;39553;52.954;5.932;2022-10-10T13:03:30;21.27;;;11.18;;
53652;SDS011;39553;52.954;5.932;2022-10-10T13:06:20;20.42;;;11.98;;
53652;SDS011;39553;52.954;5.932;2022-10-10T13:09:00;16.63;;;10.20;;
53652;SDS011;39553;52.954;5.932;2022-10-10T13:11:31;11.65;;;4.28;;
53652;SDS011;39553;52.954;5.932;2022-10-10T13:13:57;6.43;;;2.88;;
53652;SDS011;39553;52.954;5.932;2022-10-10T13:16:24;7.25;;;2.17;;
53652;SDS011;39553;52.954;5.932;2022-10-10T13:18:53;5.40;;;1.90;;
53652;SDS011;39553;52.954;5.932;2022-10-10T13:21:27;6.43;;;2.28;;
53652;SDS011;39553;52.954;5.932;2022-10-10T13:24:02;6.85;;;2.38;;
53652;SDS011;39553;52.954;5.932;2022-10-10T13:26:42;9.88;;;2.95;;
53652;SDS011;39553;52.954;5.932;2022-10-10T13:32:07;7.85;;;2.33;;
53652;SDS011;39553;52.954;5.932;2022-10-10T13:34:40;13.13;;;2.40;;
53652;SDS011;39553;52.954;5.932;2022-10-10T13:37:11;13.25;;;2.83;;
53652;SDS011;39553;52.954;5.932;2022-10-10T13:39:39;13.57;;;2.70;;
53652;SDS011;39553;52.954;5.932;2022-10-10T13:42:05;15.70;;;2.45;;
53652;SDS011;39553;52.954;5.932;2022-10-10T13:44:52;17.77;;;2.53;;
53652;SDS011;39553;52.954;5.932;2022-10-10T13:55:51;14.98;;;3.75;;
53652;SDS011;39553;52.954;5.932;2022-10-10T14:03:52;14.98;;;2.85;;
53652;SDS011;39553;52.954;5.932;2022-10-10T14:06:22;13.25;;;3.03;;
53652;SDS011;39553;52.954;5.932;2022-10-10T14:08:50;6.32;;;2.20;;
53652;SDS011;39553;52.954;5.932;2022-10-10T14:11:21;16.10;;;3.05;;
53652;SDS011;39553;52.954;5.932;2022-10-10T14:14:01;19.63;;;3.17;;
53652;SDS011;39553;52.954;5.932;2022-10-10T14:16:29;5.68;;;2.38;;
53652;SDS011;39553;52.954;5.932;2022-10-10T14:18:55;12.95;;;2.75;;
53652;SDS011;39553;52.954;5.932;2022-10-10T14:21:22;12.27;;;2.50;;
53652;SDS011;39553;52.954;5.932;2022-10-10T14:23:48;13.52;;;2.22;;
53652;SDS011;39553;52.954;5.932;2022-10-10T14:26:15;13.07;;;1.75;;
53652;SDS011;39553;52.954;5.932;2022-10-10T14:28:43;16.33;;;2.30;;
53652;SDS011;39553;52.954;5.932;2022-10-10T14:31:09;14.68;;;2.63;;
53652;SDS011;39553;52.954;5.932;2022-10-10T14:33:36;14.75;;;2.90;;
53652;SDS011;39553;52.954;5.932;2022-10-10T14:36:03;13.38;;;2.60;;
53652;SDS011;39553;52.954;5.932;2022-10-10T14:38:30;15.50;;;3.13;;
53652;SDS011;39553;52.954;5.932;2022-10-10T14:40:56;18.63;;;4.15;;
53652;SDS011;39553;52.954;5.932;2022-10-10T14:43:21;10.13;;;2.88;;
53652;SDS011;39553;52.954;5.932;2022-10-10T14:45:51;19.50;;;3.25;;
53652;SDS011;39553;52.954;5.932;2022-10-10T14:48:18;14.45;;;3.38;;
53652;SDS011;39553;52.954;5.932;2022-10-10T14:50:44;13.15;;;2.50;;
53652;SDS011;39553;52.954;5.932;2022-10-10T14:53:12;8.98;;;2.40;;
53652;SDS011;39553;52.954;5.932;2022-10-10T14:55:38;8.40;;;2.15;;
53652;SDS011;39553;52.954;5.932;2022-10-10T14:58:12;8.70;;;2.20;;
53652;SDS011;39553;52.954;5.932;2022-10-10T15:00:45;13.02;;;2.78;;
53652;SDS011;39553;52.954;5.932;2022-10-10T15:03:12;12.35;;;2.05;;
53652;SDS011;39553;52.954;5.932;2022-10-10T15:05:38;14.55;;;2.17;;
53652;SDS011;39553;52.954;5.932;2022-10-10T15:08:05;10.35;;;2.40;;
53652;SDS011;39553;52.954;5.932;2022-10-10T15:10:31;13.73;;;2.40;;
53652;SDS011;39553;52.954;5.932;2022-10-10T15:12:57;9.52;;;2.35;;
53652;SDS011;39553;52.954;5.932;2022-10-10T15:15:23;12.57;;;2.25;;
53652;SDS011;39553;52.954;5.932;2022-10-10T15:17:49;13.57;;;2.35;;
53652;SDS011;39553;52.954;5.932;2022-10-10T15:20:15;8.10;;;1.92;;
53652;SDS011;39553;52.954;5.932;2022-10-10T15:22:41;9.93;;;2.60;;
53652;SDS011;39553;52.954;5.932;2022-10-10T15:25:07;7.68;;;2.45;;
53652;SDS011;39553;52.954;5.932;2022-10-10T15:27:34;12.90;;;3.03;;
53652;SDS011;39553;52.954;5.932;2022-10-10T15:30:01;13.90;;;3.03;;
53652;SDS011;39553;52.954;5.932;2022-10-10T15:32:28;13.25;;;3.35;;
53652;SDS011;39553;52.954;5.932;2022-10-10T15:34:54;11.88;;;2.88;;
53652;SDS011;39553;52.954;5.932;2022-10-10T15:37:22;11.10;;;2.40;;
53652;SDS011;39553;52.954;5.932;2022-10-10T15:39:49;9.55;;;2.20;;
53652;SDS011;39553;52.954;5.932;2022-10-10T15:42:15;13.57;;;3.13;;
53652;SDS011;39553;52.954;5.932;2022-10-10T15:44:42;14.55;;;1.77;;
53652;SDS011;39553;52.954;5.932;2022-10-10T15:47:09;10.88;;;2.50;;
53652;SDS011;39553;52.954;5.932;2022-10-10T15:49:37;9.85;;;2.20;;
53652;SDS011;39553;52.954;5.932;2022-10-10T15:52:03;15.60;;;2.78;;
53652;SDS011;39553;52.954;5.932;2022-10-10T15:54:29;20.15;;;3.03;;
53652;SDS011;39553;52.954;5.932;2022-10-10T15:56:55;14.15;;;3.25;;
53652;SDS011;39553;52.954;5.932;2022-10-10T15:59:21;8.05;;;1.95;;
53652;SDS011;39553;52.954;5.932;2022-10-10T16:01:47;15.55;;;2.67;;
53652;SDS011;39553;52.954;5.932;2022-10-10T16:04:12;9.65;;;2.53;;
53652;SDS011;39553;52.954;5.932;2022-10-10T16:06:38;8.88;;;2.50;;
53652;SDS011;39553;52.954;5.932;2022-10-10T16:09:04;16.30;;;3.88;;
53652;SDS011;39553;52.954;5.932;2022-10-10T16:11:30;10.90;;;2.90;;
53652;SDS011;39553;52.954;5.932;2022-10-10T16:13:56;10.18;;;2.47;;
53652;SDS011;39553;52.954;5.932;2022-10-10T16:16:22;11.15;;;2.95;;
53652;SDS011;39553;52.954;5.932;2022-10-10T16:18:48;10.48;;;3.28;;
53652;SDS011;39553;52.954;5.932;2022-10-10T16:21:21;10.82;;;2.88;;
53652;SDS011;39553;52.954;5.932;2022-10-10T16:23:49;9.38;;;2.88;;
53652;SDS011;39553;52.954;5.932;2022-10-10T16:26:20;10.23;;;3.30;;
53652;SDS011;39553;52.954;5.932;2022-10-10T16:28:48;7.03;;;2.92;;
53652;SDS011;39553;52.954;5.932;2022-10-10T16:31:15;14.98;;;3.97;;
53652;SDS011;39553;52.954;5.932;2022-10-10T16:33:42;13.43;;;4.03;;
53652;SDS011;39553;52.954;5.932;2022-10-10T16:36:15;12.93;;;4.63;;
53652;SDS011;39553;52.954;5.932;2022-10-10T16:38:43;17.30;;;4.63;;
53652;SDS011;39553;52.954;5.932;2022-10-10T16:41:10;18.70;;;4.63;;
53652;SDS011;39553;52.954;5.932;2022-10-10T16:43:41;18.02;;;3.80;;
53652;SDS011;39553;52.954;5.932;2022-10-10T16:46:11;15.35;;;5.00;;
53652;SDS011;39553;52.954;5.932;2022-10-10T16:48:39;17.27;;;5.95;;
53652;SDS011;39553;52.954;5.932;2022-10-10T16:51:10;17.08;;;5.60;;
53652;SDS011;39553;52.954;5.932;2022-10-10T16:53:43;20.27;;;3.80;;